sensor_id;sensor_type;location;lat;lon;timestamp;pressure;altitude;pressure_sealevel;temperature;humidity
8318;BME280;4196;48.926;8.964;2023-04-21T00:00:32;98730.28;;;1.57;100.00
8318;BME280;4196;48.926;8.964;2023-04-21T00:03:19;98730.94;;;1.50;100.00
8318;BME280;4196;48.926;8.964;2023-04-21T00:06:08;98736.25;;;1.57;100.00
8318;BME280;4196;48.926;8.964;2023-04-21T00:08:54;98703.66;;;1.47;100.00
8318;BME280;4196;48.926;8.964;2023-04-21T00:11:41;98715.50;;;1.45;100.00
8318;BME280;4196;48.926;8.964;2023-04-21T00:14:27;98740.75;;;1.66;100.00
8318;BME280;4196;48.926;8.964;2023-04-21T00:17:13;98737.09;;;1.58;100.00
8318;BME280;4196;48.926;8.964;2023-04-21T00:20:00;98735.06;;;1.44;100.00
8318;BME280;4196;48.926;8.964;2023-04-21T00:22:47;98732.53;;;1.46;100.00
8318;BME280;4196;48.926;8.964;2023-04-21T00:25:33;98730.53;;;1.36;100.00
8318;BME280;4196;48.926;8.964;2023-04-21T00:28:19;98701.50;;;1.31;100.00
8318;BME280;4196;48.926;8.964;2023-04-21T00:31:06;98715.22;;;1.36;100.00
8318;BME280;4196;48.926;8.964;2023-04-21T00:33:52;98731.88;;;1.53;100.00
8318;BME280;4196;48.926;8.964;2023-04-21T00:36:40;98702.44;;;1.33;100.00
8318;BME280;4196;48.926;8.964;2023-04-21T00:39:27;98710.88;;;1.32;100.00
8318;BME280;4196;48.926;8.964;2023-04-21T00:42:16;98705.53;;;1.23;100.00
8318;BME280;4196;48.926;8.964;2023-04-21T00:45:03;98729.78;;;1.38;100.00
8318;BME280;4196;48.926;8.964;2023-04-21T00:47:50;98721.13;;;1.63;100.00
8318;BME280;4196;48.926;8.964;2023-04-21T00:50:37;98706.25;;;1.49;100.00
8318;BME280;4196;48.926;8.964;2023-04-21T00:53:24;98719.41;;;1.62;100.00
8318;BME280;4196;48.926;8.964;2023-04-21T00:56:11;98709.13;;;1.61;100.00
8318;BME280;4196;48.926;8.964;2023-04-21T00:58:59;98702.69;;;1.43;100.00
8318;BME280;4196;48.926;8.964;2023-04-21T01:01:45;98717.31;;;1.49;100.00
8318;BME280;4196;48.926;8.964;2023-04-21T01:04:32;98700.03;;;1.39;100.00
8318;BME280;4196;48.926;8.964;2023-04-21T01:07:24;98721.34;;;1.73;100.00
8318;BME280;4196;48.926;8.964;2023-04-21T01:10:11;98711.41;;;1.82;100.00
8318;BME280;4196;48.926;8.964;2023-04-21T01:12:57;98711.00;;;1.66;100.00
8318;BME280;4196;48.926;8.964;2023-04-21T01:15:43;98689.81;;;1.39;100.00
8318;BME280;4196;48.926;8.964;2023-04-21T01:18:30;98713.69;;;1.41;100.00
8318;BME280;4196;48.926;8.964;2023-04-21T01:21:16;98664.84;;;0.97;100.00
8318;BME280;4196;48.926;8.964;2023-04-21T01:24:04;98708.91;;;1.22;100.00
8318;BME280;4196;48.926;8.964;2023-04-21T01:26:51;98700.97;;;1.12;100.00
8318;BME280;4196;48.926;8.964;2023-04-21T01:29:40;98706.91;;;1.11;100.00
8318;BME280;4196;48.926;8.964;2023-04-21T01:32:28;98705.53;;;0.94;100.00
8318;BME280;4196;48.926;8.964;2023-04-21T01:35:15;98702.06;;;0.92;100.00
8318;BME280;4196;48.926;8.964;2023-04-21T01:38:08;98706.19;;;0.88;100.00
8318;BME280;4196;48.926;8.964;2023-04-21T01:40:55;98677.78;;;0.75;100.00
8318;BME280;4196;48.926;8.964;2023-04-21T01:43:41;98692.66;;;0.89;100.00
8318;BME280;4196;48.926;8.964;2023-04-21T01:46:27;98698.88;;;0.99;100.00
8318;BME280;4196;48.926;8.964;2023-04-21T01:49:14;98679.19;;;0.93;100.00
8318;BME280;4196;48.926;8.964;2023-04-21T01:52:01;98695.97;;;1.15;100.00
8318;BME280;4196;48.926;8.964;2023-04-21T01:54:48;98720.28;;;1.33;100.00
8318;BME280;4196;48.926;8.964;2023-04-21T01:57:34;98706.09;;;1.14;100.00
8318;BME280;4196;48.926;8.964;2023-04-21T02:00:21;98706.03;;;1.11;100.00
8318;BME280;4196;48.926;8.964;2023-04-21T02:03:07;98704.44;;;1.14;100.00
8318;BME280;4196;48.926;8.964;2023-04-21T02:05:53;98708.63;;;1.12;100.00
8318;BME280;4196;48.926;8.964;2023-04-21T02:08:40;98705.81;;;1.03;100.00
8318;BME280;4196;48.926;8.964;2023-04-21T02:11:26;98716.09;;;1.06;100.00
8318;BME280;4196;48.926;8.964;2023-04-21T02:14:12;98690.00;;;0.85;100.00
8318;BME280;4196;48.926;8.964;2023-04-21T02:16:59;98717.34;;;0.92;100.00
8318;BME280;4196;48.926;8.964;2023-04-21T02:19:46;98696.25;;;0.67;100.00
8318;BME280;4196;48.926;8.964;2023-04-21T02:22:32;98687.41;;;0.56;100.00
8318;BME280;4196;48.926;8.964;2023-04-21T02:25:21;98711.44;;;0.64;100.00
8318;BME280;4196;48.926;8.964;2023-04-21T02:28:08;98716.63;;;0.67;100.00
8318;BME280;4196;48.926;8.964;2023-04-21T02:30:54;98712.19;;;0.62;100.00
8318;BME280;4196;48.926;8.964;2023-04-21T02:33:40;98709.94;;;0.44;100.00
8318;BME280;4196;48.926;8.964;2023-04-21T02:36:29;98706.72;;;0.50;100.00
8318;BME280;4196;48.926;8.964;2023-04-21T02:39:16;98708.19;;;0.41;100.00
8318;BME280;4196;48.926;8.964;2023-04-21T02:42:03;98709.75;;;0.38;100.00
8318;BME280;4196;48.926;8.964;2023-04-21T02:44:49;98660.69;;;0.16;100.00
8318;BME280;4196;48.926;8.964;2023-04-21T02:47:36;98698.25;;;0.23;100.00
8318;BME280;4196;48.926;8.964;2023-04-21T02:50:22;98720.66;;;0.34;100.00
8318;BME280;4196;48.926;8.964;2023-04-21T02:53:08;98712.22;;;0.35;100.00
8318;BME280;4196;48.926;8.964;2023-04-21T02:55:55;98719.50;;;0.24;100.00
8318;BME280;4196;48.926;8.964;2023-04-21T02:58:41;98708.34;;;0.20;100.00
8318;BME280;4196;48.926;8.964;2023-04-21T03:01:28;98663.38;;;-0.06;100.00
8318;BME280;4196;48.926;8.964;2023-04-21T03:04:14;98711.50;;;0.13;100.00
8318;BME280;4196;48.926;8.964;2023-04-21T03:07:01;98713.66;;;0.27;100.00
8318;BME280;4196;48.926;8.964;2023-04-21T03:09:47;98714.88;;;0.12;100.00
8318;BME280;4196;48.926;8.964;2023-04-21T03:12:33;98687.06;;;0.18;100.00
8318;BME280;4196;48.926;8.964;2023-04-21T03:15:20;98718.91;;;0.33;100.00
8318;BME280;4196;48.926;8.964;2023-04-21T03:18:07;98719.81;;;0.33;100.00
8318;BME280;4196;48.926;8.964;2023-04-21T03:21:00;98670.06;;;-0.08;100.00
8318;BME280;4196;48.926;8.964;2023-04-21T03:23:46;98649.00;;;-0.30;100.00
8318;BME280;4196;48.926;8.964;2023-04-21T03:26:33;98693.41;;;0.04;100.00
8318;BME280;4196;48.926;8.964;2023-04-21T03:29:19;98655.00;;;-0.28;100.00
8318;BME280;4196;48.926;8.964;2023-04-21T03:32:06;98662.16;;;-0.17;100.00
8318;BME280;4196;48.926;8.964;2023-04-21T03:34:52;98692.50;;;0.04;100.00
8318;BME280;4196;48.926;8.964;2023-04-21T03:37:38;98698.53;;;0.06;100.00
8318;BME280;4196;48.926;8.964;2023-04-21T03:40:25;98696.44;;;0.19;100.00
8318;BME280;4196;48.926;8.964;2023-04-21T03:43:11;98690.72;;;0.27;100.00
8318;BME280;4196;48.926;8.964;2023-04-21T03:45:58;98696.81;;;0.32;100.00
8318;BME280;4196;48.926;8.964;2023-04-21T03:48:45;98703.63;;;0.33;100.00
8318;BME280;4196;48.926;8.964;2023-04-21T03:51:31;98660.47;;;0.10;100.00
8318;BME280;4196;48.926;8.964;2023-04-21T03:54:18;98698.38;;;0.27;100.00
8318;BME280;4196;48.926;8.964;2023-04-21T03:57:04;98680.09;;;0.13;100.00
8318;BME280;4196;48.926;8.964;2023-04-21T03:59:50;98639.03;;;-0.23;100.00
8318;BME280;4196;48.926;8.964;2023-04-21T04:02:37;98694.13;;;0.00;100.00
8318;BME280;4196;48.926;8.964;2023-04-21T04:05:24;98683.63;;;-0.09;100.00
8318;BME280;4196;48.926;8.964;2023-04-21T04:08:11;98695.13;;;0.05;100.00
8318;BME280;4196;48.926;8.964;2023-04-21T04:10:57;98672.63;;;-0.08;100.00
8318;BME280;4196;48.926;8.964;2023-04-21T04:13:43;98695.94;;;0.04;100.00
8318;BME280;4196;48.926;8.964;2023-04-21T04:16:29;98682.16;;;-0.03;100.00
8318;BME280;4196;48.926;8.964;2023-04-21T04:19:16;98654.25;;;0.01;100.00
8318;BME280;4196;48.926;8.964;2023-04-21T04:22:03;98700.09;;;0.28;100.00
8318;BME280;4196;48.926;8.964;2023-04-21T04:24:49;98695.94;;;0.30;100.00
8318;BME280;4196;48.926;8.964;2023-04-21T04:27:36;98687.69;;;0.11;100.00
8318;BME280;4196;48.926;8.964;2023-04-21T04:30:22;98661.03;;;0.00;100.00
8318;BME280;4196;48.926;8.964;2023-04-21T04:33:13;98703.97;;;0.16;100.00
8318;BME280;4196;48.926;8.964;2023-04-21T04:35:59;98695.13;;;0.05;100.00
8318;BME280;4196;48.926;8.964;2023-04-21T04:38:45;98699.03;;;0.21;100.00
8318;BME280;4196;48.926;8.964;2023-04-21T04:41:31;98702.13;;;0.38;100.00
8318;BME280;4196;48.926;8.964;2023-04-21T04:44:19;98702.22;;;0.41;100.00
8318;BME280;4196;48.926;8.964;2023-04-21T04:47:06;98712.47;;;0.44;100.00
8318;BME280;4196;48.926;8.964;2023-04-21T04:49:52;98674.25;;;0.15;100.00
8318;BME280;4196;48.926;8.964;2023-04-21T04:52:39;98706.19;;;0.33;100.00
8318;BME280;4196;48.926;8.964;2023-04-21T04:55:25;98670.97;;;0.19;100.00
8318;BME280;4196;48.926;8.964;2023-04-21T04:58:12;98717.47;;;0.66;100.00
8318;BME280;4196;48.926;8.964;2023-04-21T05:00:58;98701.72;;;0.80;100.00
8318;BME280;4196;48.926;8.964;2023-04-21T05:03:44;98726.28;;;1.06;100.00
8318;BME280;4196;48.926;8.964;2023-04-21T05:06:31;98696.97;;;0.92;100.00
8318;BME280;4196;48.926;8.964;2023-04-21T05:09:17;98670.47;;;0.58;100.00
8318;BME280;4196;48.926;8.964;2023-04-21T05:12:04;98725.56;;;0.82;100.00
8318;BME280;4196;48.926;8.964;2023-04-21T05:14:51;98728.75;;;0.75;100.00
8318;BME280;4196;48.926;8.964;2023-04-21T05:17:37;98730.69;;;0.83;100.00
8318;BME280;4196;48.926;8.964;2023-04-21T05:20:23;98729.31;;;0.93;100.00
8318;BME280;4196;48.926;8.964;2023-04-21T05:23:10;98742.69;;;1.14;100.00
8318;BME280;4196;48.926;8.964;2023-04-21T05:25:56;98751.38;;;1.21;100.00
8318;BME280;4196;48.926;8.964;2023-04-21T05:28:42;98734.22;;;1.15;100.00
8318;BME280;4196;48.926;8.964;2023-04-21T05:31:28;98748.16;;;1.27;100.00
8318;BME280;4196;48.926;8.964;2023-04-21T05:34:15;98746.56;;;1.30;100.00
8318;BME280;4196;48.926;8.964;2023-04-21T05:37:02;98749.41;;;1.41;100.00
8318;BME280;4196;48.926;8.964;2023-04-21T05:39:50;98757.03;;;1.69;100.00
8318;BME280;4196;48.926;8.964;2023-04-21T05:42:36;98739.19;;;1.71;100.00
8318;BME280;4196;48.926;8.964;2023-04-21T05:45:22;98751.75;;;1.63;100.00
8318;BME280;4196;48.926;8.964;2023-04-21T05:48:09;98730.34;;;1.90;100.00
8318;BME280;4196;48.926;8.964;2023-04-21T05:51:07;98741.97;;;2.12;100.00
8318;BME280;4196;48.926;8.964;2023-04-21T05:53:54;98732.78;;;2.18;100.00
8318;BME280;4196;48.926;8.964;2023-04-21T05:56:41;98728.22;;;2.40;100.00
8318;BME280;4196;48.926;8.964;2023-04-21T05:59:27;98756.50;;;2.84;100.00
8318;BME280;4196;48.926;8.964;2023-04-21T06:02:14;98745.88;;;3.03;100.00
8318;BME280;4196;48.926;8.964;2023-04-21T06:05:00;98733.22;;;3.09;100.00
8318;BME280;4196;48.926;8.964;2023-04-21T06:07:47;98728.66;;;2.98;100.00
8318;BME280;4196;48.926;8.964;2023-04-21T06:10:34;98758.91;;;3.15;100.00
8318;BME280;4196;48.926;8.964;2023-04-21T06:13:20;98719.94;;;2.88;100.00
8318;BME280;4196;48.926;8.964;2023-04-21T06:16:06;98742.53;;;3.06;100.00
8318;BME280;4196;48.926;8.964;2023-04-21T06:18:53;98696.69;;;2.77;100.00
8318;BME280;4196;48.926;8.964;2023-04-21T06:21:39;98741.59;;;3.02;100.00
8318;BME280;4196;48.926;8.964;2023-04-21T06:24:31;98752.25;;;3.24;100.00
8318;BME280;4196;48.926;8.964;2023-04-21T06:27:17;98692.66;;;3.28;100.00
8318;BME280;4196;48.926;8.964;2023-04-21T06:30:04;98708.69;;;3.61;100.00
8318;BME280;4196;48.926;8.964;2023-04-21T06:32:51;98692.97;;;3.87;100.00
8318;BME280;4196;48.926;8.964;2023-04-21T06:35:38;98725.31;;;4.32;100.00
8318;BME280;4196;48.926;8.964;2023-04-21T06:38:24;98719.16;;;4.74;100.00
8318;BME280;4196;48.926;8.964;2023-04-21T06:41:11;98720.16;;;4.83;100.00
8318;BME280;4196;48.926;8.964;2023-04-21T06:43:58;98687.63;;;4.81;100.00
8318;BME280;4196;48.926;8.964;2023-04-21T06:46:44;98749.81;;;5.25;100.00
8318;BME280;4196;48.926;8.964;2023-04-21T06:49:32;98738.97;;;5.46;100.00
8318;BME280;4196;48.926;8.964;2023-04-21T06:52:19;98718.47;;;5.49;100.00
8318;BME280;4196;48.926;8.964;2023-04-21T06:55:06;98728.91;;;5.65;100.00
8318;BME280;4196;48.926;8.964;2023-04-21T06:57:53;98734.25;;;5.83;100.00
8318;BME280;4196;48.926;8.964;2023-04-21T07:00:39;98729.47;;;6.14;100.00
8318;BME280;4196;48.926;8.964;2023-04-21T07:03:26;98719.38;;;6.35;100.00
8318;BME280;4196;48.926;8.964;2023-04-21T07:06:12;98714.16;;;6.24;100.00
8318;BME280;4196;48.926;8.964;2023-04-21T07:08:59;98715.84;;;6.24;100.00
8318;BME280;4196;48.926;8.964;2023-04-21T07:11:45;98712.47;;;6.28;100.00
8318;BME280;4196;48.926;8.964;2023-04-21T07:14:31;98675.47;;;6.14;100.00
8318;BME280;4196;48.926;8.964;2023-04-21T07:17:18;98711.06;;;6.70;100.00
8318;BME280;4196;48.926;8.964;2023-04-21T07:20:04;98711.31;;;7.07;100.00
8318;BME280;4196;48.926;8.964;2023-04-21T07:22:52;98717.53;;;7.45;100.00
8318;BME280;4196;48.926;8.964;2023-04-21T07:25:38;98704.69;;;7.61;100.00
8318;BME280;4196;48.926;8.964;2023-04-21T07:28:25;98714.97;;;7.55;100.00
8318;BME280;4196;48.926;8.964;2023-04-21T07:31:11;98715.75;;;7.32;100.00
8318;BME280;4196;48.926;8.964;2023-04-21T07:33:58;98666.59;;;6.86;100.00
8318;BME280;4196;48.926;8.964;2023-04-21T07:36:44;98671.75;;;6.86;100.00
8318;BME280;4196;48.926;8.964;2023-04-21T07:39:30;98703.47;;;6.84;100.00
8318;BME280;4196;48.926;8.964;2023-04-21T07:42:16;98676.63;;;6.46;100.00
8318;BME280;4196;48.926;8.964;2023-04-21T07:45:03;98716.13;;;6.58;100.00
8318;BME280;4196;48.926;8.964;2023-04-21T07:47:50;98671.19;;;6.13;100.00
8318;BME280;4196;48.926;8.964;2023-04-21T07:50:36;98689.97;;;6.05;100.00
8318;BME280;4196;48.926;8.964;2023-04-21T07:53:23;98661.53;;;5.90;100.00
8318;BME280;4196;48.926;8.964;2023-04-21T07:56:09;98688.19;;;5.98;100.00
8318;BME280;4196;48.926;8.964;2023-04-21T07:58:58;98698.75;;;6.29;100.00
8318;BME280;4196;48.926;8.964;2023-04-21T08:01:44;98695.50;;;6.48;100.00
8318;BME280;4196;48.926;8.964;2023-04-21T08:04:30;98695.50;;;6.50;100.00
8318;BME280;4196;48.926;8.964;2023-04-21T08:07:17;98698.16;;;6.62;100.00
8318;BME280;4196;48.926;8.964;2023-04-21T08:10:04;98704.31;;;6.83;100.00
8318;BME280;4196;48.926;8.964;2023-04-21T08:12:51;98642.50;;;6.72;100.00
8318;BME280;4196;48.926;8.964;2023-04-21T08:15:37;98633.09;;;6.74;100.00
8318;BME280;4196;48.926;8.964;2023-04-21T08:18:24;98639.22;;;7.02;100.00
8318;BME280;4196;48.926;8.964;2023-04-21T08:21:10;98678.91;;;7.48;100.00
8318;BME280;4196;48.926;8.964;2023-04-21T08:23:57;98690.09;;;7.55;100.00
8318;BME280;4196;48.926;8.964;2023-04-21T08:26:43;98678.09;;;7.72;100.00
8318;BME280;4196;48.926;8.964;2023-04-21T08:29:30;98678.16;;;7.91;100.00
8318;BME280;4196;48.926;8.964;2023-04-21T08:32:17;98655.84;;;7.96;100.00
8318;BME280;4196;48.926;8.964;2023-04-21T08:35:08;98661.00;;;8.16;100.00
8318;BME280;4196;48.926;8.964;2023-04-21T08:37:55;98618.00;;;8.04;100.00
8318;BME280;4196;48.926;8.964;2023-04-21T08:40:41;98674.78;;;8.56;100.00
8318;BME280;4196;48.926;8.964;2023-04-21T08:43:28;98677.34;;;8.70;100.00
8318;BME280;4196;48.926;8.964;2023-04-21T08:46:14;98671.28;;;8.83;100.00
8318;BME280;4196;48.926;8.964;2023-04-21T08:49:02;98653.22;;;8.89;100.00
8318;BME280;4196;48.926;8.964;2023-04-21T08:51:48;98666.94;;;9.10;100.00
8318;BME280;4196;48.926;8.964;2023-04-21T08:54:35;98656.50;;;9.37;100.00
8318;BME280;4196;48.926;8.964;2023-04-21T08:57:21;98641.09;;;9.13;100.00
8318;BME280;4196;48.926;8.964;2023-04-21T09:00:08;98637.66;;;9.14;100.00
8318;BME280;4196;48.926;8.964;2023-04-21T09:02:56;98637.53;;;9.38;100.00
8318;BME280;4196;48.926;8.964;2023-04-21T09:05:59;98664.94;;;9.70;100.00
8318;BME280;4196;48.926;8.964;2023-04-21T09:08:53;98651.03;;;9.92;100.00
8318;BME280;4196;48.926;8.964;2023-04-21T09:11:43;98599.44;;;9.71;100.00
8318;BME280;4196;48.926;8.964;2023-04-21T09:14:33;98649.16;;;10.14;100.00
8318;BME280;4196;48.926;8.964;2023-04-21T09:17:30;98616.50;;;10.00;100.00
8318;BME280;4196;48.926;8.964;2023-04-21T09:20:22;98650.84;;;10.17;100.00
8318;BME280;4196;48.926;8.964;2023-04-21T09:23:09;98654.19;;;10.34;100.00
8318;BME280;4196;48.926;8.964;2023-04-21T09:25:56;98650.69;;;10.40;100.00
8318;BME280;4196;48.926;8.964;2023-04-21T09:28:44;98624.78;;;10.42;100.00
8318;BME280;4196;48.926;8.964;2023-04-21T09:31:34;98645.34;;;10.58;100.00
8318;BME280;4196;48.926;8.964;2023-04-21T09:34:22;98643.56;;;10.63;100.00
8318;BME280;4196;48.926;8.964;2023-04-21T09:37:13;98612.72;;;10.40;100.00
8318;BME280;4196;48.926;8.964;2023-04-21T09:40:04;98633.25;;;10.59;100.00
8318;BME280;4196;48.926;8.964;2023-04-21T09:42:51;98632.28;;;10.72;100.00
8318;BME280;4196;48.926;8.964;2023-04-21T09:45:37;98640.69;;;10.93;100.00
8318;BME280;4196;48.926;8.964;2023-04-21T09:48:28;98644.91;;;11.03;100.00
8318;BME280;4196;48.926;8.964;2023-04-21T09:51:18;98606.38;;;10.75;100.00
8318;BME280;4196;48.926;8.964;2023-04-21T09:54:29;98635.34;;;11.08;100.00
8318;BME280;4196;48.926;8.964;2023-04-21T09:57:24;98630.88;;;11.19;100.00
8318;BME280;4196;48.926;8.964;2023-04-21T10:00:12;98619.47;;;11.34;100.00
8318;BME280;4196;48.926;8.964;2023-04-21T10:02:59;98620.38;;;11.31;100.00
8318;BME280;4196;48.926;8.964;2023-04-21T10:05:50;98610.00;;;11.31;98.52
8318;BME280;4196;48.926;8.964;2023-04-21T10:08:37;98577.44;;;11.12;99.97
8318;BME280;4196;48.926;8.964;2023-04-21T10:11:24;98588.31;;;11.37;99.86
8318;BME280;4196;48.926;8.964;2023-04-21T10:14:11;98587.50;;;11.33;100.00
8318;BME280;4196;48.926;8.964;2023-04-21T10:17:06;98611.13;;;11.75;100.00
8318;BME280;4196;48.926;8.964;2023-04-21T10:19:54;98593.06;;;11.69;99.99
8318;BME280;4196;48.926;8.964;2023-04-21T10:22:43;98570.72;;;11.59;97.12
8318;BME280;4196;48.926;8.964;2023-04-21T10:25:31;98605.03;;;11.78;97.92
8318;BME280;4196;48.926;8.964;2023-04-21T10:28:17;98603.88;;;11.99;98.08
8318;BME280;4196;48.926;8.964;2023-04-21T10:31:20;98608.94;;;12.08;95.46
8318;BME280;4196;48.926;8.964;2023-04-21T10:39:45;98601.31;;;12.50;94.38
8318;BME280;4196;48.926;8.964;2023-04-21T10:42:34;98591.19;;;12.35;91.89
8318;BME280;4196;48.926;8.964;2023-04-21T10:45:25;98587.63;;;12.42;90.10
8318;BME280;4196;48.926;8.964;2023-04-21T10:48:12;98565.06;;;12.44;93.18
8318;BME280;4196;48.926;8.964;2023-04-21T10:50:58;98584.88;;;12.49;94.11
8318;BME280;4196;48.926;8.964;2023-04-21T10:53:45;98575.09;;;12.62;92.77
8318;BME280;4196;48.926;8.964;2023-04-21T10:56:32;98575.34;;;12.50;93.41
8318;BME280;4196;48.926;8.964;2023-04-21T10:59:18;98556.91;;;12.64;94.34
8318;BME280;4196;48.926;8.964;2023-04-21T11:02:16;98550.69;;;12.72;93.99
8318;BME280;4196;48.926;8.964;2023-04-21T11:05:04;98556.81;;;12.68;94.12
8318;BME280;4196;48.926;8.964;2023-04-21T11:07:51;98560.53;;;13.00;93.39
8318;BME280;4196;48.926;8.964;2023-04-21T11:10:49;98491.94;;;12.65;91.03
8318;BME280;4196;48.926;8.964;2023-04-21T11:13:36;98551.41;;;13.22;92.24
8318;BME280;4196;48.926;8.964;2023-04-21T11:16:26;98548.50;;;13.38;92.01
8318;BME280;4196;48.926;8.964;2023-04-21T11:19:14;98547.19;;;13.57;92.08
8318;BME280;4196;48.926;8.964;2023-04-21T11:22:02;98550.44;;;13.65;86.59
8318;BME280;4196;48.926;8.964;2023-04-21T11:24:55;98555.09;;;13.51;87.50
8318;BME280;4196;48.926;8.964;2023-04-21T11:27:41;98525.63;;;13.52;89.53
8318;BME280;4196;48.926;8.964;2023-04-21T11:30:37;98504.00;;;13.50;85.26
8318;BME280;4196;48.926;8.964;2023-04-21T11:33:27;98555.03;;;13.91;84.41
8318;BME280;4196;48.926;8.964;2023-04-21T11:36:14;98526.00;;;13.72;86.06
8318;BME280;4196;48.926;8.964;2023-04-21T11:39:08;98539.66;;;14.18;88.84
8318;BME280;4196;48.926;8.964;2023-04-21T11:41:55;98523.84;;;14.24;85.13
8318;BME280;4196;48.926;8.964;2023-04-21T11:44:42;98546.06;;;14.71;83.45
8318;BME280;4196;48.926;8.964;2023-04-21T11:47:28;98547.06;;;14.33;81.61
8318;BME280;4196;48.926;8.964;2023-04-21T11:50:30;98546.78;;;14.44;84.53
8318;BME280;4196;48.926;8.964;2023-04-21T11:53:18;98539.56;;;14.55;83.12
8318;BME280;4196;48.926;8.964;2023-04-21T11:56:04;98511.38;;;14.69;81.72
8318;BME280;4196;48.926;8.964;2023-04-21T11:58:51;98509.88;;;14.90;84.14
8318;BME280;4196;48.926;8.964;2023-04-21T12:01:52;98499.78;;;15.09;77.86
8318;BME280;4196;48.926;8.964;2023-04-21T12:04:39;98513.34;;;15.20;76.68
8318;BME280;4196;48.926;8.964;2023-04-21T12:07:25;98528.56;;;15.36;76.39
8318;BME280;4196;48.926;8.964;2023-04-21T12:10:17;98490.00;;;15.17;74.01
8318;BME280;4196;48.926;8.964;2023-04-21T12:13:04;98503.78;;;15.49;75.63
8318;BME280;4196;48.926;8.964;2023-04-21T12:15:50;98501.19;;;15.77;75.48
8318;BME280;4196;48.926;8.964;2023-04-21T12:18:37;98489.88;;;16.03;73.17
8318;BME280;4196;48.926;8.964;2023-04-21T12:21:29;98521.47;;;16.46;69.81
8318;BME280;4196;48.926;8.964;2023-04-21T12:24:15;98490.72;;;16.29;71.85
8318;BME280;4196;48.926;8.964;2023-04-21T12:27:02;98508.44;;;16.21;70.84
8318;BME280;4196;48.926;8.964;2023-04-21T12:29:48;98492.59;;;16.00;72.41
8318;BME280;4196;48.926;8.964;2023-04-21T12:32:34;98474.63;;;15.63;72.92
8318;BME280;4196;48.926;8.964;2023-04-21T12:35:21;98475.50;;;15.63;73.42
8318;BME280;4196;48.926;8.964;2023-04-21T12:38:08;98476.31;;;15.92;73.69
8318;BME280;4196;48.926;8.964;2023-04-21T12:40:54;98488.09;;;16.04;72.96
8318;BME280;4196;48.926;8.964;2023-04-21T12:43:40;98472.69;;;15.96;71.29
8318;BME280;4196;48.926;8.964;2023-04-21T12:46:27;98477.16;;;15.92;72.08
8318;BME280;4196;48.926;8.964;2023-04-21T12:49:13;98486.34;;;16.04;71.50
8318;BME280;4196;48.926;8.964;2023-04-21T12:52:00;98484.13;;;16.18;73.14
8318;BME280;4196;48.926;8.964;2023-04-21T12:54:50;98482.41;;;16.42;73.48
8318;BME280;4196;48.926;8.964;2023-04-21T12:57:36;98456.78;;;16.52;72.70
8318;BME280;4196;48.926;8.964;2023-04-21T13:00:23;98436.13;;;16.46;69.27
8318;BME280;4196;48.926;8.964;2023-04-21T13:03:09;98466.81;;;16.64;70.36
8318;BME280;4196;48.926;8.964;2023-04-21T13:05:56;98467.91;;;17.06;69.76
8318;BME280;4196;48.926;8.964;2023-04-21T13:08:43;98464.94;;;17.37;68.74
8318;BME280;4196;48.926;8.964;2023-04-21T13:11:29;98469.69;;;17.27;66.67
8318;BME280;4196;48.926;8.964;2023-04-21T13:14:17;98469.03;;;16.99;66.56
8318;BME280;4196;48.926;8.964;2023-04-21T13:17:03;98465.19;;;17.09;68.06
8318;BME280;4196;48.926;8.964;2023-04-21T13:19:50;98414.13;;;16.75;68.00
8318;BME280;4196;48.926;8.964;2023-04-21T13:22:37;98449.31;;;17.35;68.23
8318;BME280;4196;48.926;8.964;2023-04-21T13:25:23;98462.00;;;17.23;66.37
8318;BME280;4196;48.926;8.964;2023-04-21T13:28:09;98438.03;;;17.11;66.74
8318;BME280;4196;48.926;8.964;2023-04-21T13:30:56;98453.13;;;17.49;66.97
8318;BME280;4196;48.926;8.964;2023-04-21T13:33:43;98439.75;;;17.34;66.13
8318;BME280;4196;48.926;8.964;2023-04-21T13:36:29;98414.25;;;17.39;68.20
8318;BME280;4196;48.926;8.964;2023-04-21T13:39:17;98412.44;;;17.62;65.95
8318;BME280;4196;48.926;8.964;2023-04-21T13:42:04;98419.09;;;17.49;65.42
8318;BME280;4196;48.926;8.964;2023-04-21T13:44:51;98436.97;;;17.59;64.68
8318;BME280;4196;48.926;8.964;2023-04-21T13:47:38;98394.53;;;17.31;65.33
8318;BME280;4196;48.926;8.964;2023-04-21T13:50:24;98428.22;;;17.60;68.59
8318;BME280;4196;48.926;8.964;2023-04-21T13:53:11;98402.91;;;17.61;65.82
8318;BME280;4196;48.926;8.964;2023-04-21T13:55:59;98414.47;;;17.33;64.32
8318;BME280;4196;48.926;8.964;2023-04-21T13:58:45;98404.09;;;17.10;65.98
8318;BME280;4196;48.926;8.964;2023-04-21T14:01:31;98395.13;;;17.15;66.16
8318;BME280;4196;48.926;8.964;2023-04-21T14:04:18;98419.31;;;17.65;66.63
8318;BME280;4196;48.926;8.964;2023-04-21T14:07:06;98406.66;;;17.76;65.89
8318;BME280;4196;48.926;8.964;2023-04-21T14:09:53;98384.66;;;17.80;66.02
8318;BME280;4196;48.926;8.964;2023-04-21T14:12:40;98384.09;;;17.51;63.82
8318;BME280;4196;48.926;8.964;2023-04-21T14:15:26;98369.75;;;17.39;64.11
8318;BME280;4196;48.926;8.964;2023-04-21T14:18:13;98370.75;;;17.57;64.10
8318;BME280;4196;48.926;8.964;2023-04-21T14:20:59;98402.44;;;17.72;63.12
8318;BME280;4196;48.926;8.964;2023-04-21T14:23:45;98372.44;;;17.58;63.52
8318;BME280;4196;48.926;8.964;2023-04-21T14:26:32;98361.38;;;17.52;64.36
8318;BME280;4196;48.926;8.964;2023-04-21T14:29:19;98377.31;;;17.68;64.35
8318;BME280;4196;48.926;8.964;2023-04-21T14:32:05;98366.25;;;17.81;63.34
8318;BME280;4196;48.926;8.964;2023-04-21T14:34:52;98328.09;;;17.76;62.90
8318;BME280;4196;48.926;8.964;2023-04-21T14:37:39;98355.06;;;17.98;63.87
8318;BME280;4196;48.926;8.964;2023-04-21T14:40:26;98316.22;;;17.67;62.89
8318;BME280;4196;48.926;8.964;2023-04-21T14:43:12;98337.91;;;17.91;62.64
8318;BME280;4196;48.926;8.964;2023-04-21T14:45:59;98333.19;;;17.99;63.60
8318;BME280;4196;48.926;8.964;2023-04-21T14:48:45;98330.56;;;17.99;65.66
8318;BME280;4196;48.926;8.964;2023-04-21T14:51:32;98320.19;;;18.17;64.97
8318;BME280;4196;48.926;8.964;2023-04-21T14:54:19;98323.16;;;18.28;61.81
8318;BME280;4196;48.926;8.964;2023-04-21T14:57:05;98325.81;;;18.07;62.79
8318;BME280;4196;48.926;8.964;2023-04-21T15:00:05;98317.75;;;17.93;62.52
8318;BME280;4196;48.926;8.964;2023-04-21T15:02:53;98341.28;;;18.14;64.21
8318;BME280;4196;48.926;8.964;2023-04-21T15:05:39;98345.31;;;18.21;63.06
8318;BME280;4196;48.926;8.964;2023-04-21T15:08:26;98325.91;;;18.25;62.92
8318;BME280;4196;48.926;8.964;2023-04-21T15:11:13;98333.56;;;18.29;63.13
8318;BME280;4196;48.926;8.964;2023-04-21T15:13:59;98337.97;;;18.29;62.07